Wednesday, August 15, 2018, 4:42 AM EDT
Back to Local

KHIE, Mt Washington Regional Airport

Location: Jefferson, NH, United States Lat: 44.367
Local Time: 4:42 AM EDT ( 8:42 GMT) Lon: -71.55
Time Zone: US/Eastern Elev: 1072 ft

Show me the last for .
Show Decoded

2018-08-15 04:32 METAR KHIE 150832Z AUTO 00000KT 1 3/4SM BR OVC001 15/15 A2984 RMK AO2 VIS 3/4V5
                 T01500150 =
2018-08-15 04:16 METAR KHIE 150816Z AUTO 00000KT 4SM BR OVC001 15/14 A2984 RMK AO2 T01500144 =
2018-08-15 04:07 METAR KHIE 150807Z AUTO 00000KT 2SM BR BKN001 15/14 A2984 RMK AO2 T01500144 =
2018-08-15 04:02 METAR KHIE 150802Z AUTO 00000KT 1SM BR BKN001 15/14 A2984 RMK AO2 T01500144 =
2018-08-15 03:55 METAR KHIE 150755Z AUTO 00000KT 2 1/2SM BR BKN001 BKN030 14/14 A2984 RMK AO2
                 T01440139 =
2018-08-15 03:52 METAR KHIE 150752Z AUTO 00000KT 8SM SCT002 BKN030 14/14 A2984 RMK AO2 SLP100
                 T01440139 =
2018-08-15 03:08 METAR KHIE 150708Z AUTO 00000KT 8SM SCT002 16/15 A2984 RMK AO2 T01560150 =
2018-08-15 02:52 METAR KHIE 150652Z AUTO 00000KT 8SM BKN002 16/15 A2985 RMK AO2 SLP102 T01610150
                 =
2018-08-15 01:52 METAR KHIE 150552Z AUTO 00000KT 9SM CLR 17/16 A2985 RMK AO2 SLP105 T01670161
                 10239 20161 58000 =
2018-08-15 00:52 METAR KHIE 150452Z AUTO 00000KT 10SM CLR 17/17 A2986 RMK AO2 SLP106 T01720167
                 402830172 =
2018-08-14 23:52 METAR KHIE 150352Z AUTO 00000KT 10SM CLR 18/18 A2986 RMK AO2 SLP107 T01830178 =
2018-08-14 22:52 METAR KHIE 150252Z AUTO 00000KT 10SM SCT110 19/18 A2986 RMK AO2 SLP107 T01890178
                 50007 =
2018-08-14 21:52 METAR KHIE 150152Z AUTO 00000KT 10SM FEW100 21/19 A2986 RMK AO2 SLP108 T02060189
                 =
2018-08-14 20:52 METAR KHIE 150052Z AUTO VRB03KT 10SM CLR 22/19 A2985 RMK AO2 SLP102 T02220189 =
2018-08-14 19:52 METAR KHIE 142352Z AUTO 00000KT 10SM CLR 24/19 A2983 RMK AO2 SLP098 T02440194
                 10283 20244 55003 =
2018-08-14 18:52 METAR KHIE 142252Z AUTO 00000KT 10SM CLR 26/20 A2983 RMK AO2 SLP094 T02610200 =
2018-08-14 17:52 METAR KHIE 142152Z AUTO VRB03KT 10SM FEW050 26/20 A2984 RMK AO2 SLP101 T02610200
                 =
2018-08-14 16:52 METAR KHIE 142052Z AUTO 00000KT 10SM CLR 27/19 A2984 RMK AO2 SLP100 T02720194
                 56015 =
2018-08-14 15:52 METAR KHIE 141952Z AUTO VRB04KT 10SM CLR 28/19 A2985 RMK AO2 SLP101 T02780189 =
2018-08-14 14:52 METAR KHIE 141852Z AUTO VRB04KT 10SM FEW060 28/21 A2987 RMK AO2 SLP109 T02830206
                 =
2018-08-14 13:52 METAR KHIE 141752Z AUTO 00000KT 10SM FEW014 FEW019 26/22 A2989 RMK AO2 SLP116
                 60007 T02560217 10272 20217 58013 =
2018-08-14 12:52 METAR KHIE 141652Z AUTO 04003KT 10SM SCT009 24/22 A2991 RMK AO2 RAE09 SLP124
                 P0000 T02440217 =
2018-08-14 12:48 METAR KHIE 141648Z AUTO VRB04KT 10SM SCT009 24/21 A2992 RMK AO2 RAE09 P0000 =
2018-08-14 12:05 METAR KHIE 141605Z AUTO 00000KT 6SM -RA BR FEW028 OVC034 22/21 A2993 RMK AO2
                 P0000 T02220206 =
2018-08-14 11:52 METAR KHIE 141552Z AUTO 00000KT 2SM RA BR FEW007 SCT022 OVC033 22/21 A2993 RMK
                 AO2 VIS 1 1/2V3 SLP130 P0005 T02220206 =
2018-08-14 11:48 METAR KHIE 141548Z AUTO 00000KT 2 1/2SM -RA BR SCT024 OVC033 23/21 A2993 RMK AO2
                 VIS 1 3/4V5 P0004 =
2018-08-14 11:30 METAR KHIE 141530Z AUTO 00000KT 3SM -RA BR SCT016 OVC024 22/21 A2993 RMK AO2
                 P0003 T02220206 =
2018-08-14 11:21 METAR KHIE 141521Z AUTO 00000KT 1 3/4SM -RA BR FEW007 BKN016 OVC026 22/21 A2993
                 RMK AO2 P0002 T02220206 =
2018-08-14 11:09 METAR KHIE 141509Z AUTO 30004KT 4SM -RA BR SCT007 OVC016 22/21 A2993 RMK AO2
                 P0001 T02170211 =
2018-08-14 10:59 METAR KHIE 141459Z AUTO 30004KT 2SM -RA BR SCT007 OVC018 22/21 A2994 RMK AO2 VIS
                 1V5 P0001 T02220211 =
2018-08-14 10:52 METAR KHIE 141452Z AUTO 28004KT 3SM -RA BR SCT008 OVC018 22/21 A2994 RMK AO2
                 RAB25 SLP134 P0002 60002 T02220211 56001 =
2018-08-14 10:50 METAR KHIE 141450Z AUTO 28004KT 5SM -RA BR SCT008 OVC018 22/21 A2994 RMK AO2
                 RAB25 P0001 =
2018-08-14 09:52 METAR KHIE 141352Z AUTO 03003KT 10SM SCT020 BKN029 OVC034 22/21 A2993 RMK AO2
                 RAE06 SLP132 P0000 T02220206 =
2018-08-14 09:35 METAR KHIE 141335Z AUTO 34003KT 10SM SCT018 BKN025 OVC032 22/21 A2994 RMK AO2
                 RAE06 P0000 T02220206 =
2018-08-14 08:52 METAR KHIE 141252Z AUTO 00000KT 9SM -RA SCT026 BKN034 OVC042 22/20 A2994 RMK AO2
                 RAB22 SLP134 P0000 T02220200 =
2018-08-14 07:52 METAR KHIE 141152Z AUTO 06006KT 10SM BKN043 OVC050 22/19 A2994 RMK AO2 SLP134
                 60000 70001 T02170194 10217 20194 55001 =
2018-08-14 06:52 METAR KHIE 141052Z AUTO 00000KT 10SM SCT039 SCT049 BKN060 21/19 A2994 RMK AO2
                 RAE0953 SLP134 P0000 T02110189 =
2018-08-14 05:52 METAR KHIE 140952Z AUTO 00000KT 10SM -RA FEW036 BKN060 OVC095 21/19 A2994 RMK
                 AO2 RAB42 SLP133 P0000 T02060189 =
2018-08-14 04:52 METAR KHIE 140852Z AUTO 00000KT 10SM SCT039 BKN060 OVC075 21/19 A2995 RMK AO2
                 RAB0757E08 SLP136 P0000 60000 T02060189 58013 =

Support USWX by starting your Amazon purchase here.